createdAt,value
2023-01-09T00:03:36.288Z,14.73
2023-01-09T00:07:39.346Z,15.27
2023-01-09T00:11:42.286Z,15.73
2023-01-09T00:15:45.220Z,16.27
2023-01-09T00:19:49.536Z,14.35
2023-01-09T00:23:54.609Z,15.55
2023-01-09T00:27:57.550Z,16.38
2023-01-09T00:32:00.527Z,16.45
2023-01-09T00:36:05.523Z,20.23
2023-01-09T00:40:09.435Z,18.65
2023-01-09T00:44:15.963Z,16.42
2023-01-09T00:48:26.546Z,16.70
2023-01-09T00:52:32.311Z,18.40
2023-01-09T00:56:37.165Z,17.60
2023-01-09T01:00:40.415Z,20.83
2023-01-09T01:05:00.852Z,18.60
2023-01-09T01:09:05.287Z,17.05
2023-01-09T01:13:08.318Z,16.90
2023-01-09T01:17:11.509Z,16.45
2023-01-09T01:21:15.984Z,14.15
2023-01-09T01:25:20.467Z,16.02
2023-01-09T01:29:23.409Z,14.13
2023-01-09T01:33:26.512Z,13.63
2023-01-09T01:37:29.616Z,11.20
2023-01-09T01:41:34.279Z,12.48
2023-01-09T01:45:40.354Z,11.10
2023-01-09T01:49:43.596Z,12.60
2023-01-09T01:53:49.281Z,12.55
2023-01-09T01:57:59.654Z,10.82
2023-01-09T02:02:04.190Z,12.15
2023-01-09T02:06:08.359Z,10.88
2023-01-09T02:10:11.815Z,10.13
2023-01-09T02:14:17.507Z,11.75
2023-01-09T02:18:41.551Z,11.30
2023-01-09T02:23:01.641Z,13.15
2023-01-09T02:27:30.543Z,11.48
2023-01-09T02:31:43.356Z,9.98
2023-01-09T02:36:13.712Z,11.40
2023-01-09T02:40:26.075Z,10.85
2023-01-09T02:44:31.802Z,10.85
2023-01-09T02:48:36.285Z,11.55
2023-01-09T02:52:54.976Z,11.68
2023-01-09T02:57:17.938Z,13.90
2023-01-09T03:01:29.740Z,10.85
2023-01-09T03:05:41.458Z,11.40
2023-01-09T03:09:48.258Z,11.52
2023-01-09T03:13:54.518Z,11.52
2023-01-09T03:17:58.829Z,12.30
2023-01-09T03:22:04.005Z,9.55
2023-01-09T03:26:11.754Z,11.48
2023-01-09T03:30:15.059Z,10.63
2023-01-09T03:34:18.194Z,11.25
2023-01-09T03:38:22.654Z,12.07
2023-01-09T03:42:25.621Z,9.50
2023-01-09T03:46:28.542Z,12.55
2023-01-09T03:50:31.790Z,9.75
2023-01-09T03:54:36.211Z,10.35
2023-01-09T03:58:39.127Z,13.57
2023-01-09T04:02:43.145Z,9.90
2023-01-09T04:06:46.119Z,10.23
2023-01-09T04:10:51.589Z,10.57
2023-01-09T04:14:54.495Z,10.68
2023-01-09T04:18:57.710Z,13.02
2023-01-09T04:23:00.750Z,11.57
2023-01-09T04:27:05.223Z,12.60
2023-01-09T04:31:08.141Z,12.48
2023-01-09T04:35:11.555Z,11.77
2023-01-09T04:39:14.631Z,9.70
2023-01-09T04:43:18.983Z,12.18
2023-01-09T04:47:23.744Z,10.20
2023-01-09T04:51:26.650Z,10.38
2023-01-09T04:55:29.734Z,10.18
2023-01-09T04:59:34.017Z,15.23
2023-01-09T05:03:36.953Z,10.80
2023-01-09T05:07:40.327Z,12.15
2023-01-09T05:11:43.253Z,11.10
2023-01-09T05:15:47.609Z,10.70
2023-01-09T05:19:50.725Z,11.70
2023-01-09T05:23:53.970Z,10.73
2023-01-09T05:27:56.996Z,11.32
2023-01-09T05:32:01.283Z,12.90
2023-01-09T05:36:04.367Z,10.95
2023-01-09T05:40:08.370Z,14.48
2023-01-09T05:44:11.461Z,9.52
2023-01-09T05:48:15.781Z,9.98
2023-01-09T05:52:18.704Z,10.70
2023-01-09T05:56:21.707Z,11.05
2023-01-09T06:00:24.852Z,12.40
2023-01-09T06:04:30.119Z,12.18
2023-01-09T06:08:33.333Z,6.07
2023-01-09T06:12:36.298Z,4.18
2023-01-09T06:16:39.508Z,6.20
2023-01-09T06:20:45.389Z,4.03
2023-01-09T06:24:48.385Z,3.15
2023-01-09T06:28:51.421Z,5.88
2023-01-09T06:32:54.477Z,3.05
2023-01-09T06:37:01.846Z,3.20
2023-01-09T06:41:04.947Z,3.00
2023-01-09T06:45:09.013Z,2.28
2023-01-09T06:49:12.192Z,1.98
2023-01-09T06:53:16.437Z,2.50
2023-01-09T06:57:19.364Z,4.97
2023-01-09T07:01:22.436Z,1.98
2023-01-09T07:05:25.477Z,2.40
2023-01-09T07:09:29.790Z,2.20
2023-01-09T07:13:32.804Z,3.25
2023-01-09T07:17:35.781Z,2.97
2023-01-09T07:21:38.679Z,4.10
2023-01-09T07:25:43.948Z,7.35
2023-01-09T07:29:47.032Z,7.90
2023-01-09T07:33:49.972Z,7.60
2023-01-09T07:37:53.029Z,6.32
2023-01-09T07:41:57.489Z,3.97
2023-01-09T07:46:01.606Z,2.58
2023-01-09T07:50:05.063Z,2.42
2023-01-09T07:54:07.997Z,2.25
2023-01-09T07:58:12.351Z,2.25
2023-01-09T08:02:15.553Z,8.38
2023-01-09T08:06:18.536Z,10.80
2023-01-09T08:10:21.947Z,11.90
2023-01-09T08:14:26.292Z,11.13
2023-01-09T08:18:29.218Z,11.95
2023-01-09T08:22:32.163Z,11.57
2023-01-09T08:26:35.065Z,13.82
2023-01-09T08:30:39.780Z,13.90
2023-01-09T08:34:42.693Z,12.75
2023-01-09T08:38:45.699Z,13.40
2023-01-09T08:43:06.253Z,14.05
2023-01-09T08:47:10.819Z,13.43
2023-01-09T08:51:13.723Z,14.35
2023-01-09T08:55:16.771Z,11.75
2023-01-09T08:59:19.745Z,13.70
2023-01-09T09:03:24.041Z,13.40
2023-01-09T09:07:27.504Z,13.88
2023-01-09T09:11:31.515Z,13.55
2023-01-09T09:15:34.777Z,13.00
2023-01-09T09:19:42.754Z,15.00
2023-01-09T09:23:45.740Z,13.07
2023-01-09T09:27:48.812Z,12.80
2023-01-09T09:31:51.708Z,12.07
2023-01-09T09:35:56.201Z,13.63
2023-01-09T09:40:01.441Z,12.18
2023-01-09T09:44:43.668Z,10.65
2023-01-09T09:48:56.959Z,13.90
2023-01-09T09:53:07.930Z,10.48
2023-01-09T09:57:17.125Z,9.02
2023-01-09T10:01:25.826Z,5.50
2023-01-09T10:05:31.946Z,5.32
2023-01-09T10:09:48.348Z,3.00
2023-01-09T10:14:13.163Z,3.78
2023-01-09T10:18:35.439Z,2.58
2023-01-09T10:22:49.720Z,3.15
2023-01-09T10:26:55.099Z,2.47
2023-01-09T10:31:02.618Z,2.47
2023-01-09T10:35:39.258Z,1.85
2023-01-09T10:39:55.683Z,2.03
2023-01-09T10:44:05.504Z,1.70
2023-01-09T10:48:20.847Z,1.65
2023-01-09T10:52:31.075Z,1.45
2023-01-09T10:56:40.845Z,1.33
2023-01-09T11:00:46.459Z,2.25
2023-01-09T11:04:49.547Z,1.55
2023-01-09T11:08:57.049Z,1.00
2023-01-09T11:13:14.945Z,0.93
2023-01-09T11:17:24.411Z,1.10
2023-01-09T11:21:33.183Z,0.93
2023-01-09T11:25:36.240Z,1.25
2023-01-09T11:29:39.763Z,0.73
2023-01-09T11:33:51.782Z,1.48
2023-01-09T11:38:05.465Z,0.85
2023-01-09T11:42:18.638Z,0.30
2023-01-09T11:46:33.464Z,1.05
2023-01-09T11:50:38.180Z,0.35
2023-01-09T11:54:45.548Z,0.40
2023-01-09T11:58:48.684Z,0.52
2023-01-09T12:03:05.321Z,0.52
2023-01-09T12:07:24.481Z,0.52
2023-01-09T12:11:34.307Z,0.60
2023-01-09T12:15:48.419Z,0.40
2023-01-09T12:20:09.143Z,0.47
2023-01-09T12:24:37.685Z,0.98
2023-01-09T12:28:55.053Z,0.45
2023-01-09T12:33:15.343Z,0.60
2023-01-09T12:37:38.613Z,0.60
2023-01-09T12:42:11.141Z,0.57
2023-01-09T12:46:19.106Z,0.32
2023-01-09T12:50:36.576Z,0.35
2023-01-09T12:54:47.170Z,0.50
2023-01-09T12:58:55.697Z,0.50
2023-01-09T13:03:12.001Z,0.60
2023-01-09T13:07:22.333Z,2.55
2023-01-09T13:11:29.832Z,0.55
2023-01-09T13:15:40.736Z,2.05
2023-01-09T13:19:46.204Z,0.98
2023-01-09T13:23:53.273Z,1.00
2023-01-09T13:28:00.588Z,1.42
2023-01-09T13:32:25.726Z,0.80
2023-01-09T13:36:33.116Z,1.50
2023-01-09T13:40:36.258Z,0.98
2023-01-09T13:44:39.674Z,1.00
2023-01-09T13:48:44.077Z,1.17
2023-01-09T13:52:48.979Z,0.93
2023-01-09T13:57:26.227Z,1.33
2023-01-09T14:01:47.552Z,2.15
2023-01-09T14:06:18.614Z,1.63
2023-01-09T14:10:25.780Z,1.63
2023-01-09T14:14:33.185Z,1.85
2023-01-09T14:18:41.666Z,1.10
2023-01-09T14:22:56.386Z,0.98
2023-01-09T14:27:27.106Z,1.48
2023-01-09T14:31:31.971Z,1.13
2023-01-09T14:35:47.504Z,1.23
2023-01-09T14:39:52.612Z,1.23
2023-01-09T14:44:01.991Z,1.85
2023-01-09T14:48:09.865Z,1.83
2023-01-09T14:52:22.447Z,1.65
2023-01-09T14:56:29.806Z,1.10
2023-01-09T15:00:32.870Z,1.98
2023-01-09T15:04:41.459Z,2.30
2023-01-09T15:08:47.074Z,2.33
2023-01-09T15:12:53.793Z,1.40
2023-01-09T15:16:57.009Z,0.90
2023-01-09T15:21:03.990Z,1.65
2023-01-09T15:25:37.746Z,1.38
2023-01-09T15:29:43.150Z,1.08
2023-01-09T15:33:48.264Z,1.35
2023-01-09T15:37:54.752Z,1.83
2023-01-09T15:42:16.873Z,1.15
2023-01-09T15:46:21.329Z,2.33
2023-01-09T15:50:30.396Z,1.55
2023-01-09T15:54:35.286Z,1.70
2023-01-09T15:58:39.523Z,1.13
2023-01-09T16:03:03.512Z,1.30
2023-01-09T16:07:16.160Z,1.05
2023-01-09T16:11:24.876Z,1.25
2023-01-09T16:15:30.223Z,1.50
2023-01-09T16:19:48.875Z,0.95
2023-01-09T16:23:57.514Z,0.80
2023-01-09T16:32:24.512Z,1.08
2023-01-09T16:36:29.681Z,1.35
2023-01-09T16:40:36.078Z,1.00
2023-01-09T16:44:39.132Z,1.55
2023-01-09T16:48:42.393Z,1.10
2023-01-09T16:52:47.589Z,1.08
2023-01-09T16:56:54.288Z,1.65
2023-01-09T17:00:57.706Z,1.25
2023-01-09T17:05:00.862Z,1.08
2023-01-09T17:09:05.601Z,1.27
2023-01-09T17:13:08.876Z,1.35
2023-01-09T17:17:12.958Z,0.85
2023-01-09T17:21:18.824Z,2.63
2023-01-09T17:25:40.900Z,1.75
2023-01-09T17:29:44.625Z,1.42
2023-01-09T17:33:47.720Z,0.93
2023-01-09T17:37:50.730Z,1.15
2023-01-09T17:41:57.613Z,1.60
2023-01-09T17:46:01.154Z,1.88
2023-01-09T17:50:04.602Z,2.30
2023-01-09T17:54:08.053Z,1.65
2023-01-09T17:58:25.887Z,2.15
2023-01-09T18:02:28.980Z,2.72
2023-01-09T18:06:32.192Z,2.35
2023-01-09T18:10:35.280Z,2.25
2023-01-09T18:14:40.722Z,2.80
2023-01-09T18:18:45.049Z,1.23
2023-01-09T18:22:48.170Z,1.67
2023-01-09T18:26:51.399Z,1.85
2023-01-09T18:30:55.796Z,1.73
2023-01-09T18:34:58.936Z,2.05
2023-01-09T18:39:04.114Z,2.65
2023-01-09T18:43:07.972Z,1.45
2023-01-09T18:47:12.556Z,1.10
2023-01-09T18:51:15.594Z,1.08
2023-01-09T18:55:18.686Z,1.92
2023-01-09T18:59:21.770Z,2.47
2023-01-09T19:03:26.317Z,1.08
2023-01-09T19:07:29.354Z,1.67
2023-01-09T19:11:32.636Z,1.67
2023-01-09T19:15:35.755Z,1.33
2023-01-09T19:19:40.304Z,1.17
2023-01-09T19:23:44.891Z,2.22
2023-01-09T19:27:49.438Z,3.40
2023-01-09T19:31:53.383Z,1.52
2023-01-09T19:35:58.061Z,1.98
2023-01-09T19:40:01.164Z,1.45
2023-01-09T19:44:04.263Z,2.40
2023-01-09T19:48:07.443Z,1.67
2023-01-09T19:52:11.998Z,2.22
2023-01-09T19:56:16.693Z,1.65
2023-01-09T20:00:20.371Z,1.75
2023-01-09T20:04:23.437Z,2.35
2023-01-09T20:08:27.856Z,1.30
2023-01-09T20:12:30.876Z,3.28
2023-01-09T20:16:33.984Z,2.45
2023-01-09T20:20:38.291Z,2.35
2023-01-09T20:24:43.010Z,2.85
2023-01-09T20:28:47.090Z,1.67
2023-01-09T20:32:50.922Z,1.98
2023-01-09T20:36:55.396Z,1.58
2023-01-09T20:41:07.294Z,3.25
2023-01-09T20:45:11.980Z,1.88
2023-01-09T20:49:16.960Z,2.35
2023-01-09T20:53:20.018Z,2.40
2023-01-09T20:57:24.454Z,2.95
2023-01-09T21:01:28.256Z,2.53
2023-01-09T21:05:31.280Z,2.38
2023-01-09T21:09:34.299Z,1.92
2023-01-09T21:13:39.500Z,2.80
2023-01-09T21:17:42.658Z,3.08
2023-01-09T21:21:45.676Z,3.28
2023-01-09T21:25:48.965Z,2.25
2023-01-09T21:29:54.526Z,2.55
2023-01-09T21:33:57.766Z,3.72
2023-01-09T21:38:00.987Z,2.10
2023-01-09T21:42:21.698Z,1.77
2023-01-09T21:46:43.521Z,1.92
2023-01-09T21:50:46.579Z,2.33
2023-01-09T21:54:49.642Z,6.78
2023-01-09T21:58:52.705Z,2.17
2023-01-09T22:02:57.863Z,2.67
2023-01-09T22:07:01.304Z,2.38
2023-01-09T22:11:04.727Z,2.03
2023-01-09T22:15:08.232Z,3.67
2023-01-09T22:19:13.113Z,2.40
2023-01-09T22:23:16.157Z,7.00
2023-01-09T22:27:19.185Z,3.15
2023-01-09T22:31:25.200Z,3.13
2023-01-09T22:35:29.614Z,2.80
2023-01-09T22:39:32.639Z,2.47
2023-01-09T22:43:35.843Z,4.20
2023-01-09T22:47:38.851Z,4.88
2023-01-09T22:51:43.831Z,4.32
2023-01-09T22:55:46.860Z,3.08
2023-01-09T22:59:49.881Z,3.10
2023-01-09T23:03:53.206Z,2.42
2023-01-09T23:07:57.647Z,1.88
2023-01-09T23:12:03.405Z,2.47
2023-01-09T23:16:07.304Z,2.50
2023-01-09T23:20:11.661Z,1.40
2023-01-09T23:24:17.820Z,1.98
2023-01-09T23:28:21.776Z,1.85
2023-01-09T23:32:24.879Z,1.25
2023-01-09T23:36:27.923Z,1.92
2023-01-09T23:40:32.356Z,1.38
2023-01-09T23:44:36.410Z,2.47
2023-01-09T23:48:39.779Z,1.00
2023-01-09T23:52:43.035Z,1.17
2023-01-09T23:56:47.492Z,1.30
